Lancang, China
Current Conditions -  °F | °C
As of 5:00 PM on Friday 31 Oct 2014 (Local Time) from VTCT Reporting Station
Few Clouds Few Clouds  
Wind Chill: 90°   Ceiling: Unl
Heat Index: 93°   Visibility: 6mi
Dew Point: 68°   Wind: 2mph
Humidity: 49%   Direction: NA
Pressure: 29.8"   Gusts: NA
Location:  22.57°N, 99.93°E
Report Text: VTCT 310900Z VRB02KT 9999 FEW025 32/20 Q1009 A2981RMK/RWY03 INFO J
Loading
Personal Weather Stations






























Interactive Weather Map
Tropical Storm Tracking
New forecast layout! Learn more

10-Day Weather Forecast

Advertisements
Track Severe Weather on mobile